Sparta, TN (38583)

1:55 PM CST on March 05, 2015 (GMT -0600)
Bakers Crossroads | Change Station
CLOSE
Current Station
Personal Weather Station
Location: Sparta, TN
Elevation: 1027 ft
Nearby Weather Stations

Elev 1027 ft 36.01 °N, 85.56 °W | Updated 10 seconds ago

Overcast
Overcast
25.2 °F
Feels Like 25 °F
N
0.0
Wind Variable Wind from NE
Gusts 0.0 mph

Today
High -- | Low -- °F
--% Chance of Precip.
Yesterday
High -- | Low -- °F
Precip. -- in
6:07 AM 5:40 PM
Full, 100% visible
Pressure 30.46 in
Visibility 10.0 miles
Clouds Overcast 1600 ft
Windchill 25 °F
Dew Point 19 °F
Humidity 77%
Rainfall in
Snow Depth Not available.
UV 2 out of 12
Pollen .80 out of 12
Air Quality Not available.
Flu Activity Not available.
METAR KMQY 051856Z 35011G14KT 10SM -SN OVC016 M05/M08 A3041 RMK AO2 T10501077 P0000 SLP314

More Conditions Fewer Conditions

Pressure 30.46 in
Visibility 10.0 miles
Clouds Overcast 1600 ft
Windchill 25 °F
Dew Point 19 °F
Humidity 77%
Rainfall in
Snow Depth Not available.
UV 2 out of 12
Pollen .80 out of 12
Air Quality Not available.
Flu Activity Not available.
METAR KMQY 051856Z 35011G14KT 10SM -SN OVC016 M05/M08 A3041 RMK AO2 T10501077 P0000 SLP314

More Conditions Fewer Conditions

10-Day Weather Forecast

Almanac

Astronomy

Mar. 05, 2015 Rise Set
Actual Time
Civil Twilight
Nautical Twilight
Astronomical Twilight
Moon
Length of Visible Light
Length of Day
Tomorrow will be .
, % of the Moon is Illuminated

Today's Extremes

State Highs State Lows

Community

WunderPhotos

Upload Photos

1,802,929 photos uploaded!

WunderBlogs® & News

Nearby

Air Quality

  Air Quality AQ Index Pollutant
Not available.

Snow Depth

Station Depth Elevation

Earthquake Activity

City Distance Mag. Time & Date
Minimum magnitude displayed is 2.5.

Coastal Water Temperatures

Place Temperature

Nearby Weather Stations